Cove City, North Carolina
Current Conditions -  °F | °C
As of 5:54 AM on Friday 19 Dec 2014 (Local Time) from KEWN Reporting Station
Scattered Clouds Scattered Clouds  
Wind Chill: 36°   Ceiling: Unl
Heat Index: 36°   Visibility: 10mi
Dew Point: 32°   Wind: 0mph
Humidity: 86%   Direction: NA
Pressure: 30.12"   Gusts: NA
Location:  35.19°N, 77.32°W
Report Text: KEWN 191054Z 00000KT 10SM SCT075 02/00 A3012 RMK AO2 SLP199 T00220000
Loading
Personal Weather Stations






























Interactive Weather Map New forecast layout! Learn more

10-Day Weather Forecast

Advertisements
Track Severe Weather on mobile